createdAt,value
2022-09-23T00:01:14.368Z,18.45
2022-09-23T00:03:42.316Z,18.17
2022-09-23T00:06:19.668Z,18.20
2022-09-23T00:08:46.677Z,18.70
2022-09-23T00:11:15.257Z,18.73
2022-09-23T00:13:43.118Z,18.58
2022-09-23T00:16:12.752Z,19.77
2022-09-23T00:18:39.634Z,19.63
2022-09-23T00:21:07.356Z,19.23
2022-09-23T00:23:34.301Z,18.08
2022-09-23T00:26:01.869Z,19.17
2022-09-23T00:28:29.105Z,19.05
2022-09-23T00:30:56.284Z,18.00
2022-09-23T00:33:23.193Z,18.25
2022-09-23T00:35:49.962Z,19.60
2022-09-23T00:38:17.238Z,19.90
2022-09-23T00:40:44.835Z,18.98
2022-09-23T00:43:13.022Z,17.83
2022-09-23T00:45:40.937Z,18.60
2022-09-23T00:48:08.893Z,18.58
2022-09-23T00:50:40.065Z,19.23
2022-09-23T00:53:08.076Z,18.27
2022-09-23T00:55:39.226Z,18.58
2022-09-23T00:58:08.016Z,19.23
2022-09-23T01:00:35.634Z,19.17
2022-09-23T01:03:02.582Z,18.30
2022-09-23T01:05:29.371Z,17.98
2022-09-23T01:07:57.532Z,18.23
2022-09-23T01:10:24.374Z,18.48
2022-09-23T01:13:16.155Z,17.65
2022-09-23T01:16:08.375Z,19.67
2022-09-23T01:18:45.518Z,17.50
2022-09-23T01:21:21.406Z,16.88
2022-09-23T01:24:02.448Z,16.58
2022-09-23T01:26:51.333Z,16.52
2022-09-23T01:29:55.067Z,17.55
2022-09-23T01:33:04.795Z,17.23
2022-09-23T01:36:05.261Z,17.95
2022-09-23T01:38:39.741Z,16.95
2022-09-23T01:41:13.214Z,17.83
2022-09-23T01:43:47.298Z,17.15
2022-09-23T01:46:19.820Z,17.95
2022-09-23T01:48:51.424Z,17.27
2022-09-23T01:51:23.922Z,17.52
2022-09-23T01:54:18.952Z,16.40
2022-09-23T01:56:56.335Z,16.83
2022-09-23T01:59:35.849Z,16.95
2022-09-23T02:02:15.364Z,16.38
2022-09-23T02:04:48.080Z,15.90
2022-09-23T02:07:20.364Z,16.08
2022-09-23T02:09:52.658Z,17.48
2022-09-23T02:12:20.368Z,16.58
2022-09-23T02:14:56.644Z,14.93
2022-09-23T02:17:31.646Z,16.30
2022-09-23T02:20:01.683Z,15.73
2022-09-23T02:22:35.360Z,15.27
2022-09-23T02:25:03.273Z,13.93
2022-09-23T02:27:34.864Z,13.73
2022-09-23T02:30:21.862Z,15.30
2022-09-23T02:32:53.334Z,15.20
2022-09-23T02:35:33.357Z,14.38
2022-09-23T02:38:18.689Z,13.80
2022-09-23T02:40:46.037Z,15.27
2022-09-23T02:43:24.425Z,14.52
2022-09-23T02:45:51.264Z,15.02
2022-09-23T02:48:30.680Z,15.55
2022-09-23T02:50:57.933Z,14.10
2022-09-23T02:53:25.053Z,14.82
2022-09-23T02:55:51.844Z,13.18
2022-09-23T02:58:18.632Z,14.40
2022-09-23T03:00:50.180Z,13.35
2022-09-23T03:03:46.972Z,13.20
2022-09-23T03:06:30.224Z,12.55
2022-09-23T03:09:13.015Z,12.40
2022-09-23T03:11:40.583Z,13.13
2022-09-23T03:14:19.855Z,13.35
2022-09-23T03:16:55.936Z,13.15
2022-09-23T03:19:56.097Z,12.05
2022-09-23T03:22:28.041Z,12.93
2022-09-23T03:24:54.817Z,12.20
2022-09-23T03:27:24.132Z,13.80
2022-09-23T03:29:51.776Z,12.02
2022-09-23T03:32:20.200Z,11.82
2022-09-23T03:34:49.083Z,12.65
2022-09-23T03:37:18.049Z,11.73
2022-09-23T03:39:49.930Z,12.40
2022-09-23T03:42:21.189Z,11.98
2022-09-23T03:44:48.286Z,13.20
2022-09-23T03:47:15.782Z,12.68
2022-09-23T03:49:43.833Z,13.23
2022-09-23T03:52:11.167Z,13.38
2022-09-23T03:54:37.969Z,13.13
2022-09-23T03:57:05.140Z,11.98
2022-09-23T03:59:31.964Z,11.88
2022-09-23T04:01:59.629Z,12.30
2022-09-23T04:04:27.673Z,11.55
2022-09-23T04:06:57.837Z,11.20
2022-09-23T04:09:24.653Z,11.45
2022-09-23T04:11:52.086Z,11.27
2022-09-23T04:14:19.465Z,11.65
2022-09-23T04:16:46.963Z,11.00
2022-09-23T04:19:14.246Z,12.88
2022-09-23T04:21:41.316Z,10.50
2022-09-23T04:24:08.270Z,10.93
2022-09-23T04:26:35.493Z,9.90
2022-09-23T04:29:02.547Z,9.43
2022-09-23T04:31:29.437Z,10.85
2022-09-23T04:33:56.734Z,10.57
2022-09-23T04:36:23.533Z,10.40
2022-09-23T04:38:50.809Z,9.57
2022-09-23T04:41:18.213Z,10.20
2022-09-23T04:43:45.264Z,9.73
2022-09-23T04:46:13.478Z,10.35
2022-09-23T04:48:41.644Z,10.07
2022-09-23T04:51:19.264Z,9.40
2022-09-23T04:53:47.324Z,9.63
2022-09-23T04:56:18.653Z,9.38
2022-09-23T04:58:46.102Z,8.70
2022-09-23T05:01:17.480Z,9.00
2022-09-23T05:03:44.652Z,10.15
2022-09-23T05:06:13.805Z,8.85
2022-09-23T05:08:41.664Z,8.88
2022-09-23T05:11:09.018Z,8.82
2022-09-23T05:13:36.216Z,9.55
2022-09-23T05:16:05.061Z,9.35
2022-09-23T05:18:32.647Z,9.55
2022-09-23T05:21:00.238Z,9.13
2022-09-23T05:23:27.563Z,8.80
2022-09-23T05:26:02.850Z,8.55
2022-09-23T05:28:32.394Z,8.43
2022-09-23T05:31:20.575Z,8.38
2022-09-23T05:33:54.179Z,8.65
2022-09-23T05:36:21.639Z,8.95
2022-09-23T05:38:51.582Z,8.05
2022-09-23T05:41:19.656Z,9.13
2022-09-23T05:43:47.427Z,7.45
2022-09-23T05:46:19.587Z,8.52
2022-09-23T05:48:47.295Z,8.07
2022-09-23T05:51:19.003Z,9.13
2022-09-23T05:53:46.550Z,9.07
2022-09-23T05:56:17.716Z,9.82
2022-09-23T05:58:44.681Z,9.15
2022-09-23T06:01:13.303Z,8.70
2022-09-23T06:03:40.319Z,9.02
2022-09-23T06:06:07.767Z,8.82
2022-09-23T06:08:34.932Z,9.00
2022-09-23T06:11:07.754Z,9.65
2022-09-23T06:13:38.258Z,8.50
2022-09-23T06:16:13.006Z,8.15
2022-09-23T06:18:40.830Z,8.23
2022-09-23T06:21:09.311Z,9.10
2022-09-23T06:23:39.480Z,8.75
2022-09-23T06:26:09.708Z,8.50
2022-09-23T06:28:37.878Z,9.40
2022-09-23T06:31:13.394Z,9.05
2022-09-23T06:33:45.043Z,8.00
2022-09-23T06:36:13.116Z,7.90
2022-09-23T06:38:44.692Z,7.97
2022-09-23T06:41:12.108Z,8.18
2022-09-23T06:43:38.987Z,8.00
2022-09-23T06:46:07.375Z,8.23
2022-09-23T06:48:35.347Z,9.07
2022-09-23T06:51:04.178Z,7.97
2022-09-23T06:53:34.121Z,7.75
2022-09-23T06:56:02.643Z,7.65
2022-09-23T06:58:30.140Z,7.80
2022-09-23T07:01:08.519Z,7.32
2022-09-23T07:03:35.726Z,7.38
2022-09-23T07:06:02.952Z,8.52
2022-09-23T07:08:30.146Z,7.78
2022-09-23T07:10:58.170Z,8.18
2022-09-23T07:13:25.294Z,7.70
2022-09-23T07:15:58.559Z,7.18
2022-09-23T07:18:25.931Z,7.03
2022-09-23T07:20:53.268Z,6.55
2022-09-23T07:23:20.257Z,7.70
2022-09-23T07:25:49.480Z,6.88
2022-09-23T07:28:16.539Z,6.30
2022-09-23T07:30:55.005Z,7.10
2022-09-23T07:33:31.822Z,7.30
2022-09-23T07:35:59.627Z,6.10
2022-09-23T07:38:30.230Z,6.75
2022-09-23T07:41:08.109Z,6.60
2022-09-23T07:43:35.435Z,6.75
2022-09-23T07:46:04.161Z,6.00
2022-09-23T07:48:34.336Z,6.57
2022-09-23T07:51:19.065Z,6.40
2022-09-23T07:53:52.095Z,6.85
2022-09-23T07:56:19.967Z,6.93
2022-09-23T07:59:00.019Z,6.45
2022-09-23T08:01:33.152Z,5.60
2022-09-23T08:04:21.673Z,6.03
2022-09-23T08:06:50.396Z,6.85
2022-09-23T08:09:18.845Z,5.65
2022-09-23T08:11:45.780Z,5.32
2022-09-23T08:14:13.653Z,6.68
2022-09-23T08:16:41.268Z,6.15
2022-09-23T08:19:08.343Z,5.60
2022-09-23T08:21:35.492Z,6.30
2022-09-23T08:24:02.599Z,6.07
2022-09-23T08:26:29.398Z,5.63
2022-09-23T08:28:56.574Z,5.47
2022-09-23T08:31:23.578Z,5.57
2022-09-23T08:33:57.091Z,5.80
2022-09-23T08:36:24.747Z,5.45
2022-09-23T08:38:51.637Z,5.15
2022-09-23T08:41:40.210Z,4.72
2022-09-23T08:44:13.798Z,5.05
2022-09-23T08:46:44.906Z,5.10
2022-09-23T08:49:12.398Z,4.90
2022-09-23T08:51:46.256Z,5.05
2022-09-23T08:54:13.531Z,5.05
2022-09-23T08:56:40.349Z,4.97
2022-09-23T08:59:38.354Z,4.68
2022-09-23T09:02:20.232Z,4.78
2022-09-23T09:04:54.577Z,4.53
2022-09-23T09:07:36.523Z,4.38
2022-09-23T09:10:03.855Z,4.60
2022-09-23T09:12:45.297Z,4.85
2022-09-23T09:15:27.380Z,4.45
2022-09-23T09:18:14.051Z,4.35
2022-09-23T09:20:57.173Z,3.95
2022-09-23T09:23:30.113Z,3.92
2022-09-23T09:26:01.648Z,3.95
2022-09-23T09:28:36.368Z,4.13
2022-09-23T09:31:14.972Z,3.87
2022-09-23T09:33:47.827Z,3.83
2022-09-23T09:36:36.127Z,3.72
2022-09-23T09:39:03.695Z,3.10
2022-09-23T09:41:31.609Z,3.13
2022-09-23T09:44:00.700Z,3.22
2022-09-23T09:46:51.334Z,3.97
2022-09-23T09:49:40.889Z,3.78
2022-09-23T09:52:12.209Z,3.15
2022-09-23T09:54:39.637Z,3.50
2022-09-23T09:57:12.412Z,3.00
2022-09-23T09:59:44.126Z,3.33
2022-09-23T10:02:25.581Z,2.90
2022-09-23T10:04:58.094Z,2.55
2022-09-23T10:07:27.195Z,2.38
2022-09-23T10:09:58.345Z,2.92
2022-09-23T10:12:28.688Z,2.90
2022-09-23T10:14:56.684Z,2.60
2022-09-23T10:17:26.460Z,2.10
2022-09-23T10:20:06.918Z,2.72
2022-09-23T10:22:39.787Z,3.08
2022-09-23T10:25:16.425Z,2.50
2022-09-23T10:27:45.769Z,2.53
2022-09-23T10:30:22.620Z,2.50
2022-09-23T10:32:50.847Z,2.20
2022-09-23T10:35:21.037Z,2.30
2022-09-23T10:37:52.648Z,2.08
2022-09-23T10:40:51.076Z,2.13
2022-09-23T10:43:39.574Z,2.22
2022-09-23T10:46:27.523Z,2.60
2022-09-23T10:49:09.163Z,1.90
2022-09-23T10:51:57.941Z,2.10
2022-09-23T10:54:52.183Z,1.17
2022-09-23T10:57:42.480Z,2.10
2022-09-23T11:00:23.569Z,2.22
2022-09-23T11:03:02.866Z,1.45
2022-09-23T11:05:55.463Z,1.55
2022-09-23T11:09:00.073Z,1.70
2022-09-23T11:11:52.460Z,1.65
2022-09-23T11:14:40.772Z,1.60
2022-09-23T11:17:45.279Z,1.40
2022-09-23T11:20:46.616Z,1.90
2022-09-23T11:23:13.451Z,1.95
2022-09-23T11:25:50.574Z,1.48
2022-09-23T11:28:39.948Z,1.70
2022-09-23T11:31:40.545Z,1.65
2022-09-23T11:34:43.702Z,1.40
2022-09-23T11:37:15.469Z,1.40
2022-09-23T11:39:59.871Z,1.55
2022-09-23T11:42:32.901Z,2.00
2022-09-23T11:45:02.324Z,1.48
2022-09-23T11:47:55.016Z,1.33
2022-09-23T11:50:44.743Z,1.50
2022-09-23T11:53:36.380Z,1.50
2022-09-23T11:56:30.092Z,1.55
2022-09-23T11:59:06.662Z,1.52
2022-09-23T12:01:38.535Z,1.30
2022-09-23T12:04:29.187Z,1.60
2022-09-23T12:07:08.673Z,1.42
2022-09-23T12:09:58.556Z,1.23
2022-09-23T12:12:39.292Z,1.38
2022-09-23T12:15:17.663Z,1.52
2022-09-23T12:17:59.773Z,1.17
2022-09-23T12:20:42.275Z,1.73
2022-09-23T12:23:13.317Z,1.35
2022-09-23T12:25:57.847Z,1.30
2022-09-23T12:28:27.473Z,1.00
2022-09-23T12:30:55.409Z,1.13
2022-09-23T12:33:24.668Z,1.58
2022-09-23T12:35:53.543Z,1.42
2022-09-23T12:38:36.794Z,1.50
2022-09-23T12:41:19.634Z,1.00
2022-09-23T12:43:58.948Z,1.38
2022-09-23T12:46:27.621Z,1.20
2022-09-23T12:48:57.974Z,1.10
2022-09-23T12:51:29.175Z,1.20
2022-09-23T12:53:57.318Z,1.40
2022-09-23T12:56:36.280Z,1.65
2022-09-23T12:59:21.954Z,1.70
2022-09-23T13:01:48.876Z,1.83
2022-09-23T13:04:47.851Z,1.33
2022-09-23T13:07:16.760Z,1.35
2022-09-23T13:09:48.037Z,1.70
2022-09-23T13:12:25.280Z,1.50
2022-09-23T13:14:53.485Z,1.77
2022-09-23T13:17:33.353Z,1.60
2022-09-23T13:20:25.830Z,1.50
2022-09-23T13:22:52.583Z,1.80
2022-09-23T13:25:24.537Z,1.83
2022-09-23T13:27:55.888Z,1.35
2022-09-23T13:30:26.410Z,1.25
2022-09-23T13:33:05.224Z,1.80
2022-09-23T13:35:36.280Z,1.60
2022-09-23T13:38:20.215Z,1.45
2022-09-23T13:40:47.495Z,1.35
2022-09-23T13:43:40.264Z,1.13
2022-09-23T13:46:19.567Z,1.60
2022-09-23T13:48:47.938Z,1.33
2022-09-23T13:51:24.642Z,1.50
2022-09-23T13:53:55.355Z,1.65
2022-09-23T13:56:22.603Z,1.73
2022-09-23T13:58:49.384Z,1.48
2022-09-23T14:01:36.907Z,1.58
2022-09-23T14:04:04.120Z,1.38
2022-09-23T14:06:31.125Z,1.17
2022-09-23T14:08:58.241Z,1.63
2022-09-23T14:11:33.208Z,1.80
2022-09-23T14:14:00.872Z,1.60
2022-09-23T14:16:28.276Z,1.50
2022-09-23T14:18:59.525Z,1.58
2022-09-23T14:21:35.017Z,1.42
2022-09-23T14:24:14.927Z,1.30
2022-09-23T14:26:43.013Z,1.70
2022-09-23T14:29:23.949Z,2.22
2022-09-23T14:31:59.911Z,1.90
2022-09-23T14:34:46.677Z,2.95
2022-09-23T14:37:42.689Z,2.42
2022-09-23T14:40:13.170Z,2.90
2022-09-23T14:43:01.799Z,2.53
2022-09-23T14:45:31.765Z,2.80
2022-09-23T14:48:14.696Z,2.47
2022-09-23T14:50:47.567Z,2.42
2022-09-23T14:53:19.029Z,2.30
2022-09-23T14:55:52.760Z,2.20
2022-09-23T14:58:22.673Z,2.20
2022-09-23T15:00:54.303Z,2.25
2022-09-23T15:03:21.274Z,2.45
2022-09-23T15:05:49.049Z,2.47
2022-09-23T15:08:21.328Z,2.00
2022-09-23T15:10:48.085Z,2.22
2022-09-23T15:13:20.694Z,2.10
2022-09-23T15:15:47.793Z,2.20
2022-09-23T15:18:18.821Z,2.28
2022-09-23T15:20:52.251Z,1.98
2022-09-23T15:23:35.775Z,2.17
2022-09-23T15:26:24.346Z,1.95
2022-09-23T15:28:53.685Z,2.15
2022-09-23T15:31:21.323Z,2.60
2022-09-23T15:33:48.246Z,2.00
2022-09-23T15:36:19.218Z,2.20
2022-09-23T15:38:46.234Z,1.95
2022-09-23T15:41:14.348Z,2.15
2022-09-23T15:43:44.592Z,2.13
2022-09-23T15:46:20.747Z,2.17
2022-09-23T15:49:00.185Z,2.10
2022-09-23T15:51:27.638Z,2.20
2022-09-23T15:53:56.412Z,2.70
2022-09-23T15:56:23.765Z,2.10
2022-09-23T15:58:50.622Z,2.10
2022-09-23T16:01:21.131Z,2.90
2022-09-23T16:03:48.019Z,1.95
2022-09-23T16:06:15.495Z,2.42
2022-09-23T16:08:42.588Z,2.10
2022-09-23T16:11:19.617Z,2.40
2022-09-23T16:13:46.751Z,1.95
2022-09-23T16:16:13.677Z,2.05
2022-09-23T16:18:42.423Z,1.67
2022-09-23T16:21:17.660Z,2.28
2022-09-23T16:23:47.468Z,1.95
2022-09-23T16:26:24.372Z,2.17
2022-09-23T16:28:53.076Z,2.00
2022-09-23T16:31:21.011Z,2.33
2022-09-23T16:33:48.298Z,2.30
2022-09-23T16:36:28.984Z,2.40
2022-09-23T16:38:56.087Z,2.58
2022-09-23T16:41:23.836Z,2.30
2022-09-23T16:43:51.373Z,2.20
2022-09-23T16:46:18.566Z,1.95
2022-09-23T16:48:51.422Z,2.35
2022-09-23T16:51:23.952Z,2.05
2022-09-23T16:53:51.523Z,2.25
2022-09-23T16:56:23.035Z,2.55
2022-09-23T16:58:53.036Z,2.55
2022-09-23T17:01:59.674Z,2.42
2022-09-23T17:04:27.755Z,3.13
2022-09-23T17:06:54.964Z,2.78
2022-09-23T17:09:24.658Z,3.00
2022-09-23T17:11:56.377Z,2.95
2022-09-23T17:14:23.177Z,3.22
2022-09-23T17:16:50.094Z,3.47
2022-09-23T17:19:17.195Z,3.42
2022-09-23T17:21:44.069Z,3.80
2022-09-23T17:24:10.935Z,3.75
2022-09-23T17:26:38.247Z,3.92
2022-09-23T17:29:05.609Z,4.82
2022-09-23T17:31:32.502Z,4.32
2022-09-23T17:33:59.667Z,4.13
2022-09-23T17:36:28.251Z,4.88
2022-09-23T17:38:55.024Z,5.25
2022-09-23T17:41:22.125Z,5.95
2022-09-23T17:43:54.455Z,6.30
2022-09-23T17:46:21.229Z,5.50
2022-09-23T17:48:48.685Z,6.90
2022-09-23T17:51:17.623Z,6.40
2022-09-23T17:53:45.379Z,6.88
2022-09-23T17:56:25.872Z,7.00
2022-09-23T17:58:53.541Z,7.72
2022-09-23T18:01:22.426Z,8.00
2022-09-23T18:04:02.300Z,9.05
2022-09-23T18:06:33.496Z,9.80
2022-09-23T18:09:06.730Z,10.20
2022-09-23T18:11:44.343Z,10.35
2022-09-23T18:14:19.149Z,11.82
2022-09-23T18:19:18.673Z,11.93
2022-09-23T18:21:50.533Z,11.57
2022-09-23T18:24:34.004Z,11.45
2022-09-23T18:27:01.525Z,12.70
2022-09-23T18:29:28.786Z,13.95
2022-09-23T18:31:55.783Z,14.40
2022-09-23T18:34:23.590Z,14.85
2022-09-23T18:36:50.865Z,15.93
2022-09-23T18:39:17.852Z,16.80
2022-09-23T18:41:44.617Z,18.30
2022-09-23T18:44:11.763Z,18.60
2022-09-23T18:46:38.615Z,18.77
2022-09-23T18:49:24.020Z,17.58
2022-09-23T18:51:53.680Z,19.00
2022-09-23T18:54:20.610Z,20.38
2022-09-23T18:56:47.468Z,19.95
2022-09-23T18:59:17.588Z,19.50
2022-09-23T19:01:45.966Z,20.52
2022-09-23T19:04:14.036Z,22.10
2022-09-23T19:06:41.171Z,23.27
2022-09-23T19:09:08.262Z,24.25
2022-09-23T19:11:36.327Z,24.95
2022-09-23T19:14:04.953Z,24.05
2022-09-23T19:16:31.950Z,26.35
2022-09-23T19:19:02.157Z,24.80
2022-09-23T19:21:29.403Z,25.55
2022-09-23T19:23:57.904Z,25.60
2022-09-23T19:26:26.818Z,27.35
2022-09-23T19:28:55.279Z,27.02
2022-09-23T19:31:24.222Z,26.65
2022-09-23T19:33:58.881Z,27.05
2022-09-23T19:36:30.870Z,26.92
2022-09-23T19:38:59.104Z,29.27
2022-09-23T19:41:28.117Z,29.35
2022-09-23T19:43:55.217Z,29.92
2022-09-23T19:46:22.398Z,31.10
2022-09-23T19:48:49.620Z,31.20
2022-09-23T19:51:22.593Z,30.15
2022-09-23T19:53:49.356Z,31.98
2022-09-23T19:56:17.928Z,29.70
2022-09-23T19:58:47.313Z,31.30
2022-09-23T20:01:17.649Z,31.60
2022-09-23T20:03:45.254Z,33.33
2022-09-23T20:06:12.049Z,32.55
2022-09-23T20:08:39.291Z,32.40
2022-09-23T20:11:22.639Z,33.25
2022-09-23T20:13:58.420Z,33.00
2022-09-23T20:16:25.710Z,34.92
2022-09-23T20:18:52.640Z,35.03
2022-09-23T20:21:19.483Z,33.45
2022-09-23T20:23:46.688Z,32.95
2022-09-23T20:26:32.088Z,35.17
2022-09-23T20:31:29.353Z,33.95
2022-09-23T20:33:58.529Z,36.15
2022-09-23T20:36:26.339Z,34.17
2022-09-23T20:38:57.147Z,35.53
2022-09-23T20:41:24.019Z,36.17
2022-09-23T20:43:54.767Z,35.95
2022-09-23T20:46:24.421Z,35.78
2022-09-23T20:48:51.415Z,36.50
2022-09-23T20:51:18.945Z,35.40
2022-09-23T20:53:49.168Z,35.78
2022-09-23T20:56:16.544Z,36.17
2022-09-23T20:58:44.570Z,38.17
2022-09-23T21:01:11.605Z,38.95
2022-09-23T21:03:39.906Z,38.05
2022-09-23T21:06:08.005Z,36.88
2022-09-23T21:08:35.463Z,38.13
2022-09-23T21:11:06.132Z,39.80
2022-09-23T21:13:33.620Z,39.60
2022-09-23T21:16:08.983Z,38.33
2022-09-23T21:18:37.530Z,39.85
2022-09-23T21:21:05.443Z,38.63
2022-09-23T21:23:34.166Z,39.85
2022-09-23T21:26:06.622Z,38.83
2022-09-23T21:28:38.236Z,40.25
2022-09-23T21:31:10.145Z,41.15
2022-09-23T21:33:37.531Z,41.05
2022-09-23T21:36:05.779Z,42.40
2022-09-23T21:38:36.632Z,41.78
2022-09-23T21:41:05.780Z,41.47
2022-09-23T21:43:33.981Z,40.92
2022-09-23T21:46:03.360Z,41.47
2022-09-23T21:48:31.003Z,40.70
2022-09-23T21:50:59.120Z,41.15
2022-09-23T21:53:26.765Z,41.65
2022-09-23T21:55:54.132Z,41.90
2022-09-23T21:58:22.587Z,42.97
2022-09-23T22:00:49.657Z,40.70
2022-09-23T22:03:16.587Z,39.92
2022-09-23T22:05:44.067Z,43.15
2022-09-23T22:08:11.195Z,41.10
2022-09-23T22:10:38.004Z,42.08
2022-09-23T22:13:10.454Z,42.40
2022-09-23T22:15:39.728Z,41.25
2022-09-23T22:18:06.593Z,41.17
2022-09-23T22:20:33.927Z,40.60
2022-09-23T22:23:00.976Z,40.70
2022-09-23T22:25:28.706Z,40.63
2022-09-23T22:28:13.719Z,39.17
2022-09-23T22:30:59.429Z,38.20
2022-09-23T22:33:26.270Z,39.47
2022-09-23T22:36:01.517Z,37.60
2022-09-23T22:38:28.328Z,36.97
2022-09-23T22:40:55.564Z,36.83
2022-09-23T22:43:22.462Z,36.92
2022-09-23T22:45:50.850Z,37.70
2022-09-23T22:48:19.235Z,37.83
2022-09-23T22:50:46.209Z,37.63
2022-09-23T22:53:13.973Z,36.33
2022-09-23T22:55:42.126Z,35.83
2022-09-23T22:58:30.702Z,36.85
2022-09-23T23:00:57.228Z,35.15
2022-09-23T23:03:26.646Z,36.05
2022-09-23T23:05:57.547Z,35.45
2022-09-23T23:08:24.621Z,34.55
2022-09-23T23:10:51.425Z,35.05
2022-09-23T23:13:18.193Z,35.72
2022-09-23T23:15:45.282Z,34.42
2022-09-23T23:18:12.889Z,34.92
2022-09-23T23:20:39.714Z,33.95
2022-09-23T23:23:07.125Z,34.75
2022-09-23T23:25:34.141Z,34.55
2022-09-23T23:28:01.074Z,35.60
2022-09-23T23:30:28.107Z,33.83
2022-09-23T23:32:54.951Z,33.95
2022-09-23T23:35:21.710Z,33.95
2022-09-23T23:37:48.795Z,31.70
2022-09-23T23:40:15.797Z,32.75
2022-09-23T23:42:42.752Z,31.25
2022-09-23T23:45:09.894Z,32.38
2022-09-23T23:47:36.653Z,32.10
2022-09-23T23:50:04.488Z,32.47
2022-09-23T23:52:31.585Z,31.67
2022-09-23T23:54:58.357Z,32.28
2022-09-23T23:57:25.228Z,30.77
2022-09-23T23:59:52.289Z,29.98
